»·PEaware :: N2RF KTOA-KVNY

N2RF :: KTOA-KVNY

FLIGHT INFORMATION

Flight Status: Arrived
Operator: Privately registered:
United States
More flights under this callsign
Pilot: Max W. (2591)
Aircraft: BEECH AIRCRAFT BARON
(BE58)
More flights by this aircraft type
Origin: KTOA Zamperini
United States
Destination: KVNY Van Nuys
United States
More flights between these airports :: More routes between these airports
Route: LAX170 LIMBO V64 SMO125 SMO SMO317 CANOG
File this flight plan on PilotEdge
Remarks: I1! PLEASE!!!!
Altitude:
(Current/Filed)
5,000ft
Speed:
(Current/Filed)
190kts
Departed: 09-Sep-19 04:18 PM
Arrived: 09-Sep-19 04:40 PM
Distance/Time
Traveled:
25nm/0:22
Distance/Time
To Go:
Arrived

Flight Plot

Page will automatically refresh every two minutes.

Flight plan parsing failed; only flown route is shown


Map Options




Map Legend


Flown Route
Filed Route
Departure Airport
Arrival Airport
Navaid (VOR, NDB)
Fix

Horizontal Profiles

Position Reports

Time Latitude Longitude Heading Altitude Ground
Speed
09-Sep-19 15:54 33.804574 -118.345869 120 98ft 0kts
09-Sep-19 15:55 33.804574 -118.345869 120 98ft 0kts
09-Sep-19 15:56 33.804574 -118.345869 120 98ft 0kts
09-Sep-19 15:57 33.804574 -118.345869 120 98ft 0kts
09-Sep-19 15:58 33.804574 -118.345869 120 98ft 0kts
09-Sep-19 15:59 33.804574 -118.345869 120 98ft 0kts
09-Sep-19 16:00 33.804574 -118.345869 120 98ft 0kts
09-Sep-19 16:01 33.804574 -118.345869 120 98ft 0kts
09-Sep-19 16:02 33.804574 -118.345869 120 98ft 0kts
09-Sep-19 16:03 33.804574 -118.345869 120 98ft 0kts
09-Sep-19 16:04 33.804574 -118.345869 120 98ft 0kts
09-Sep-19 16:05 33.804574 -118.345869 120 98ft 0kts
09-Sep-19 16:06 33.804574 -118.345869 120 98ft 0kts
09-Sep-19 16:07 33.804574 -118.345869 120 98ft 0kts
09-Sep-19 16:08 33.804574 -118.345869 120 98ft 0kts
09-Sep-19 16:09 33.804324 -118.345328 108 98ft 6kts
09-Sep-19 16:10 33.803900 -118.343325 126 98ft 5kts
09-Sep-19 16:11 33.801913 -118.340343 127 98ft 19kts
09-Sep-19 16:12 33.799833 -118.337174 129 98ft 16kts
09-Sep-19 16:13 33.798124 -118.334209 37 98ft 8kts
09-Sep-19 16:14 33.799305 -118.333075 41 98ft 7kts
09-Sep-19 16:15 33.799665 -118.333015 308 98ft 0kts
09-Sep-19 16:16 33.799665 -118.333015 308 98ft 0kts
09-Sep-19 16:17 33.813883 -118.353771 306 732ft 142kts
09-Sep-19 16:18 33.840984 -118.395789 304 1959ft 164kts
09-Sep-19 16:19 33.857587 -118.439342 169 2984ft 175kts
09-Sep-19 16:20 33.817591 -118.435061 191 4951ft 121kts
09-Sep-19 16:21 33.775317 -118.446732 176 5094ft 167kts
09-Sep-19 16:22 33.754662 -118.406372 73 5100ft 157kts
09-Sep-19 16:24 33.763846 -118.354955 77 5099ft 159kts
09-Sep-19 16:25 33.791443 -118.341856 330 5102ft 144kts
09-Sep-19 16:26 33.829444 -118.360901 334 5098ft 150kts
09-Sep-19 16:27 33.867145 -118.380358 332 5096ft 145kts
09-Sep-19 16:28 33.904337 -118.400217 332 5078ft 146kts
09-Sep-19 16:29 33.941647 -118.420182 332 5079ft 146kts
09-Sep-19 16:30 33.979128 -118.440255 332 5079ft 147kts
09-Sep-19 16:31 34.016838 -118.460623 329 5080ft 148kts
09-Sep-19 16:32 34.053356 -118.484388 327 5083ft 149kts
09-Sep-19 16:33 34.089933 -118.508141 331 5082ft 150kts
09-Sep-19 16:34 34.131975 -118.523666 340 4603ft 164kts
09-Sep-19 16:35 34.176489 -118.539984 340 3737ft 170kts
09-Sep-19 16:36 34.221449 -118.551866 358 3029ft 148kts
09-Sep-19 16:37 34.254151 -118.546649 62 2681ft 141kts
09-Sep-19 16:38 34.254942 -118.503412 104 2430ft 114kts
09-Sep-19 16:39 34.232630 -118.492864 174 1403ft 95kts
09-Sep-19 16:40 34.211983 -118.490616 174 805ft 39kts
09-Sep-19 16:41 34.210124 -118.491514 267 805ft 0kts
09-Sep-19 16:42 34.209517 -118.491621 171 805ft 30kts
09-Sep-19 16:42 34.207282 -118.491749 89 805ft 0kts
09-Sep-19 16:44 34.207282 -118.491749 89 805ft 0kts
09-Sep-19 16:45 34.207282 -118.491749 89 805ft 0kts
09-Sep-19 16:45 34.207282 -118.491749 89 805ft 0kts

Navigation Log

Ident Type
Flight plan parsing failed, navigation log unavailable